Disclaimer

Please do not use the information listed here in-flight or in-navigation, as they are not provided to us by the airports but are provided by volunteers, so they might be outdated.

Search


Regions


Airport information page

Radio informations:
MONTPELLIER TWR - 118.2 MHz
MONTPELLIER GND - 121.95 MHz
MONTPELLIER ATIS - 124.125 MHz
MONTPELLIER APP - 120.375 MHz

Airport informations:
Latitude: 43° 34' 34.30" N
Longitude: 003° 57' 46.85" E
Elevation: 17 feet - 5 meters
Operating hours: 24 hour operations
Operating agency: Civil government, landing fees and diplomatic clearance may be required
Timezone: UTC+1(+2DT) - Last Sunday in March to last Sunday in October
Fuel: Jet A1, without icing nhibitor.

100/130 MIL Spec, low lead, aviation gasoline (BLUE)

Runway information:
13R/31L - 3609 x 98 feet< - >1100 x 30 meters
13L/31R - 8530 x 164 feet< - >2600 x 50 meters

Recent METARs:
LFMT 160630Z AUTO VRB02KT 9999 BKN021 11/09 Q1022 NOSIG
LFMT 160700Z AUTO 02004KT 9999 OVC025 11/10 Q1022 NOSIG
LFMT 160730Z AUTO 02004KT 9999 BKN028 OVC033 11/10 Q1022 NOSIG

Airport on the map: